sensor_id;sensor_type;location;lat;lon;timestamp;P1;durP1;ratioP1;P2;durP2;ratioP2
79570;SDS011;69034;49.444;7.758;2023-12-14T00:03:59;3.35;;;1.40;;
79570;SDS011;69034;49.444;7.758;2023-12-14T00:07:59;6.53;;;3.08;;
79570;SDS011;69034;49.444;7.758;2023-12-14T00:12:00;3.90;;;1.58;;
79570;SDS011;69034;49.444;7.758;2023-12-14T00:16:01;3.88;;;2.08;;
79570;SDS011;69034;49.444;7.758;2023-12-14T00:20:02;4.28;;;1.80;;
79570;SDS011;69034;49.444;7.758;2023-12-14T00:24:03;3.70;;;1.73;;
79570;SDS011;69034;49.444;7.758;2023-12-14T00:28:03;3.63;;;1.67;;
79570;SDS011;69034;49.444;7.758;2023-12-14T00:32:04;8.25;;;2.55;;
79570;SDS011;69034;49.444;7.758;2023-12-14T00:36:05;3.95;;;1.65;;
79570;SDS011;69034;49.444;7.758;2023-12-14T00:40:06;7.45;;;2.83;;
79570;SDS011;69034;49.444;7.758;2023-12-14T00:44:07;4.28;;;2.13;;
79570;SDS011;69034;49.444;7.758;2023-12-14T00:48:08;5.28;;;2.58;;
79570;SDS011;69034;49.444;7.758;2023-12-14T00:52:08;8.57;;;2.60;;
79570;SDS011;69034;49.444;7.758;2023-12-14T00:56:09;4.78;;;2.50;;
79570;SDS011;69034;49.444;7.758;2023-12-14T01:00:10;3.85;;;1.27;;
79570;SDS011;69034;49.444;7.758;2023-12-14T01:04:12;3.67;;;1.77;;
79570;SDS011;69034;49.444;7.758;2023-12-14T01:08:13;4.70;;;2.10;;
79570;SDS011;69034;49.444;7.758;2023-12-14T01:12:14;6.55;;;2.38;;
79570;SDS011;69034;49.444;7.758;2023-12-14T01:16:15;4.50;;;2.33;;
79570;SDS011;69034;49.444;7.758;2023-12-14T01:20:16;6.60;;;1.75;;
79570;SDS011;69034;49.444;7.758;2023-12-14T01:24:16;4.40;;;2.10;;
79570;SDS011;69034;49.444;7.758;2023-12-14T01:28:17;4.13;;;1.52;;
79570;SDS011;69034;49.444;7.758;2023-12-14T01:32:18;5.18;;;3.00;;
79570;SDS011;69034;49.444;7.758;2023-12-14T01:36:22;6.75;;;2.95;;
79570;SDS011;69034;49.444;7.758;2023-12-14T01:40:24;5.47;;;2.67;;
79570;SDS011;69034;49.444;7.758;2023-12-14T01:44:24;4.10;;;1.85;;
79570;SDS011;69034;49.444;7.758;2023-12-14T01:48:25;8.40;;;3.67;;
79570;SDS011;69034;49.444;7.758;2023-12-14T01:52:26;4.88;;;2.92;;
79570;SDS011;69034;49.444;7.758;2023-12-14T01:56:26;4.82;;;1.98;;
79570;SDS011;69034;49.444;7.758;2023-12-14T02:04:36;4.63;;;2.42;;
79570;SDS011;69034;49.444;7.758;2023-12-14T02:08:37;3.10;;;1.20;;
79570;SDS011;69034;49.444;7.758;2023-12-14T02:12:38;5.95;;;3.53;;
79570;SDS011;69034;49.444;7.758;2023-12-14T02:16:39;5.47;;;2.38;;
79570;SDS011;69034;49.444;7.758;2023-12-14T02:20:40;4.13;;;1.70;;
79570;SDS011;69034;49.444;7.758;2023-12-14T02:24:41;5.97;;;3.40;;
79570;SDS011;69034;49.444;7.758;2023-12-14T02:28:43;6.15;;;3.05;;
79570;SDS011;69034;49.444;7.758;2023-12-14T02:32:44;6.35;;;3.67;;
79570;SDS011;69034;49.444;7.758;2023-12-14T02:36:45;9.52;;;3.13;;
79570;SDS011;69034;49.444;7.758;2023-12-14T02:40:46;4.68;;;2.28;;
79570;SDS011;69034;49.444;7.758;2023-12-14T02:44:47;7.18;;;3.22;;
79570;SDS011;69034;49.444;7.758;2023-12-14T02:48:47;6.53;;;3.55;;
79570;SDS011;69034;49.444;7.758;2023-12-14T02:52:48;5.53;;;2.80;;
79570;SDS011;69034;49.444;7.758;2023-12-14T02:56:48;8.57;;;3.88;;
79570;SDS011;69034;49.444;7.758;2023-12-14T03:00:49;6.00;;;1.92;;
79570;SDS011;69034;49.444;7.758;2023-12-14T03:04:49;4.82;;;2.22;;
79570;SDS011;69034;49.444;7.758;2023-12-14T03:08:50;3.85;;;2.08;;
79570;SDS011;69034;49.444;7.758;2023-12-14T03:12:51;7.25;;;3.40;;
79570;SDS011;69034;49.444;7.758;2023-12-14T03:16:52;3.75;;;1.85;;
79570;SDS011;69034;49.444;7.758;2023-12-14T03:20:53;5.05;;;2.30;;
79570;SDS011;69034;49.444;7.758;2023-12-14T03:24:53;6.25;;;3.33;;
79570;SDS011;69034;49.444;7.758;2023-12-14T03:28:54;4.80;;;1.92;;
79570;SDS011;69034;49.444;7.758;2023-12-14T03:32:55;7.43;;;3.88;;
79570;SDS011;69034;49.444;7.758;2023-12-14T03:36:55;6.07;;;3.38;;
79570;SDS011;69034;49.444;7.758;2023-12-14T03:40:56;8.65;;;4.10;;
79570;SDS011;69034;49.444;7.758;2023-12-14T03:44:56;6.22;;;2.40;;
79570;SDS011;69034;49.444;7.758;2023-12-14T03:48:57;5.43;;;2.75;;
79570;SDS011;69034;49.444;7.758;2023-12-14T03:52:58;8.38;;;2.85;;
79570;SDS011;69034;49.444;7.758;2023-12-14T03:56:58;5.07;;;2.20;;
79570;SDS011;69034;49.444;7.758;2023-12-14T04:00:59;8.70;;;3.80;;
79570;SDS011;69034;49.444;7.758;2023-12-14T04:04:59;4.75;;;1.90;;
79570;SDS011;69034;49.444;7.758;2023-12-14T04:09:00;4.65;;;2.67;;
79570;SDS011;69034;49.444;7.758;2023-12-14T04:13:01;5.07;;;2.72;;
79570;SDS011;69034;49.444;7.758;2023-12-14T04:17:01;5.57;;;2.65;;
79570;SDS011;69034;49.444;7.758;2023-12-14T04:21:02;7.00;;;3.38;;
79570;SDS011;69034;49.444;7.758;2023-12-14T04:25:03;8.05;;;2.15;;
79570;SDS011;69034;49.444;7.758;2023-12-14T04:29:05;5.97;;;3.08;;
79570;SDS011;69034;49.444;7.758;2023-12-14T04:33:07;6.95;;;2.78;;
79570;SDS011;69034;49.444;7.758;2023-12-14T04:37:07;7.28;;;3.15;;
79570;SDS011;69034;49.444;7.758;2023-12-14T04:41:08;6.38;;;2.70;;
79570;SDS011;69034;49.444;7.758;2023-12-14T04:45:09;6.15;;;2.63;;
79570;SDS011;69034;49.444;7.758;2023-12-14T04:49:09;8.13;;;3.40;;
79570;SDS011;69034;49.444;7.758;2023-12-14T04:53:10;11.90;;;5.70;;
79570;SDS011;69034;49.444;7.758;2023-12-14T04:57:11;9.90;;;4.28;;
79570;SDS011;69034;49.444;7.758;2023-12-14T05:01:11;11.80;;;3.97;;
79570;SDS011;69034;49.444;7.758;2023-12-14T05:05:12;9.27;;;4.57;;
79570;SDS011;69034;49.444;7.758;2023-12-14T05:09:13;11.00;;;5.10;;
79570;SDS011;69034;49.444;7.758;2023-12-14T05:13:14;12.20;;;5.78;;
79570;SDS011;69034;49.444;7.758;2023-12-14T05:17:14;12.05;;;6.18;;
79570;SDS011;69034;49.444;7.758;2023-12-14T05:21:18;8.45;;;3.65;;
79570;SDS011;69034;49.444;7.758;2023-12-14T05:25:19;7.85;;;2.72;;
79570;SDS011;69034;49.444;7.758;2023-12-14T05:29:20;8.07;;;4.28;;
79570;SDS011;69034;49.444;7.758;2023-12-14T05:33:21;6.55;;;2.80;;
79570;SDS011;69034;49.444;7.758;2023-12-14T05:37:22;9.68;;;4.60;;
79570;SDS011;69034;49.444;7.758;2023-12-14T05:41:23;10.30;;;4.50;;
79570;SDS011;69034;49.444;7.758;2023-12-14T05:45:23;7.07;;;3.42;;
79570;SDS011;69034;49.444;7.758;2023-12-14T05:49:24;8.07;;;3.95;;
79570;SDS011;69034;49.444;7.758;2023-12-14T05:53:24;9.70;;;4.13;;
79570;SDS011;69034;49.444;7.758;2023-12-14T05:57:25;6.90;;;4.05;;
79570;SDS011;69034;49.444;7.758;2023-12-14T06:01:25;6.85;;;2.80;;
79570;SDS011;69034;49.444;7.758;2023-12-14T06:05:26;7.72;;;3.00;;
79570;SDS011;69034;49.444;7.758;2023-12-14T06:09:27;16.58;;;6.65;;
79570;SDS011;69034;49.444;7.758;2023-12-14T06:13:45;6.47;;;3.17;;
79570;SDS011;69034;49.444;7.758;2023-12-14T06:17:46;10.35;;;4.75;;
79570;SDS011;69034;49.444;7.758;2023-12-14T06:21:47;12.35;;;4.53;;
79570;SDS011;69034;49.444;7.758;2023-12-14T06:25:48;6.95;;;3.25;;
79570;SDS011;69034;49.444;7.758;2023-12-14T06:29:48;6.07;;;2.70;;
79570;SDS011;69034;49.444;7.758;2023-12-14T06:33:49;4.85;;;2.30;;
79570;SDS011;69034;49.444;7.758;2023-12-14T06:37:50;7.15;;;2.92;;
79570;SDS011;69034;49.444;7.758;2023-12-14T06:41:52;9.13;;;3.13;;
79570;SDS011;69034;49.444;7.758;2023-12-14T06:45:53;10.95;;;4.60;;
79570;SDS011;69034;49.444;7.758;2023-12-14T06:49:54;7.50;;;3.40;;
79570;SDS011;69034;49.444;7.758;2023-12-14T06:53:56;6.68;;;2.30;;
79570;SDS011;69034;49.444;7.758;2023-12-14T06:57:57;7.80;;;3.00;;
79570;SDS011;69034;49.444;7.758;2023-12-14T07:01:58;10.55;;;3.60;;
79570;SDS011;69034;49.444;7.758;2023-12-14T07:05:58;9.02;;;3.05;;
79570;SDS011;69034;49.444;7.758;2023-12-14T07:09:59;9.88;;;4.28;;
79570;SDS011;69034;49.444;7.758;2023-12-14T07:14:00;9.73;;;4.60;;
79570;SDS011;69034;49.444;7.758;2023-12-14T07:18:01;9.48;;;3.88;;
79570;SDS011;69034;49.444;7.758;2023-12-14T07:22:01;6.18;;;2.88;;
79570;SDS011;69034;49.444;7.758;2023-12-14T07:26:02;7.57;;;4.07;;
79570;SDS011;69034;49.444;7.758;2023-12-14T07:30:03;6.90;;;2.85;;
79570;SDS011;69034;49.444;7.758;2023-12-14T07:34:04;10.73;;;4.30;;
79570;SDS011;69034;49.444;7.758;2023-12-14T07:38:05;7.15;;;3.95;;
79570;SDS011;69034;49.444;7.758;2023-12-14T07:42:05;9.50;;;3.70;;
79570;SDS011;69034;49.444;7.758;2023-12-14T07:46:06;5.97;;;2.83;;
79570;SDS011;69034;49.444;7.758;2023-12-14T07:50:07;9.43;;;3.35;;
79570;SDS011;69034;49.444;7.758;2023-12-14T07:54:08;9.98;;;4.30;;
79570;SDS011;69034;49.444;7.758;2023-12-14T07:58:09;8.48;;;3.05;;
79570;SDS011;69034;49.444;7.758;2023-12-14T08:02:10;7.95;;;3.67;;
79570;SDS011;69034;49.444;7.758;2023-12-14T08:06:11;7.07;;;3.83;;
79570;SDS011;69034;49.444;7.758;2023-12-14T08:10:12;7.45;;;3.97;;
79570;SDS011;69034;49.444;7.758;2023-12-14T08:14:12;7.55;;;2.65;;
79570;SDS011;69034;49.444;7.758;2023-12-14T08:18:13;6.47;;;2.95;;
79570;SDS011;69034;49.444;7.758;2023-12-14T08:22:13;11.27;;;4.07;;
79570;SDS011;69034;49.444;7.758;2023-12-14T08:26:15;13.88;;;4.78;;
79570;SDS011;69034;49.444;7.758;2023-12-14T08:30:16;9.40;;;4.28;;
79570;SDS011;69034;49.444;7.758;2023-12-14T08:34:16;10.02;;;5.10;;
79570;SDS011;69034;49.444;7.758;2023-12-14T08:38:17;8.00;;;3.40;;
79570;SDS011;69034;49.444;7.758;2023-12-14T08:42:17;6.32;;;3.00;;
79570;SDS011;69034;49.444;7.758;2023-12-14T08:46:18;9.55;;;3.88;;
79570;SDS011;69034;49.444;7.758;2023-12-14T08:50:19;6.47;;;3.00;;
79570;SDS011;69034;49.444;7.758;2023-12-14T08:54:19;6.85;;;2.88;;
79570;SDS011;69034;49.444;7.758;2023-12-14T08:58:22;5.95;;;2.83;;
79570;SDS011;69034;49.444;7.758;2023-12-14T09:02:23;7.88;;;3.67;;
79570;SDS011;69034;49.444;7.758;2023-12-14T09:06:24;8.60;;;3.17;;
79570;SDS011;69034;49.444;7.758;2023-12-14T09:10:24;7.40;;;3.53;;
79570;SDS011;69034;49.444;7.758;2023-12-14T09:14:25;7.63;;;2.83;;
79570;SDS011;69034;49.444;7.758;2023-12-14T09:18:26;6.35;;;3.28;;
79570;SDS011;69034;49.444;7.758;2023-12-14T09:22:27;8.60;;;3.33;;
79570;SDS011;69034;49.444;7.758;2023-12-14T09:26:27;6.25;;;3.03;;
79570;SDS011;69034;49.444;7.758;2023-12-14T09:30:28;7.60;;;3.25;;
79570;SDS011;69034;49.444;7.758;2023-12-14T09:34:29;5.65;;;3.20;;
79570;SDS011;69034;49.444;7.758;2023-12-14T09:38:29;8.27;;;3.40;;
79570;SDS011;69034;49.444;7.758;2023-12-14T09:42:30;8.00;;;2.83;;
79570;SDS011;69034;49.444;7.758;2023-12-14T09:46:38;8.52;;;4.00;;
79570;SDS011;69034;49.444;7.758;2023-12-14T09:50:41;9.18;;;4.00;;
79570;SDS011;69034;49.444;7.758;2023-12-14T09:54:42;7.32;;;3.40;;
79570;SDS011;69034;49.444;7.758;2023-12-14T09:58:43;8.10;;;3.53;;
79570;SDS011;69034;49.444;7.758;2023-12-14T10:02:43;7.15;;;3.30;;
79570;SDS011;69034;49.444;7.758;2023-12-14T10:06:45;7.22;;;3.17;;
79570;SDS011;69034;49.444;7.758;2023-12-14T10:10:48;7.38;;;3.30;;
79570;SDS011;69034;49.444;7.758;2023-12-14T10:14:59;5.70;;;2.42;;
79570;SDS011;69034;49.444;7.758;2023-12-14T10:19:01;7.43;;;3.70;;
79570;SDS011;69034;49.444;7.758;2023-12-14T10:23:02;8.15;;;2.78;;
79570;SDS011;69034;49.444;7.758;2023-12-14T10:27:07;7.15;;;2.47;;
79570;SDS011;69034;49.444;7.758;2023-12-14T10:31:07;8.45;;;3.78;;
79570;SDS011;69034;49.444;7.758;2023-12-14T10:35:10;6.72;;;2.97;;
79570;SDS011;69034;49.444;7.758;2023-12-14T10:39:12;4.13;;;2.20;;
79570;SDS011;69034;49.444;7.758;2023-12-14T10:43:15;8.25;;;3.78;;
79570;SDS011;69034;49.444;7.758;2023-12-14T10:47:16;8.63;;;3.55;;
79570;SDS011;69034;49.444;7.758;2023-12-14T10:51:19;8.20;;;3.40;;
79570;SDS011;69034;49.444;7.758;2023-12-14T10:59:28;8.13;;;2.97;;
79570;SDS011;69034;49.444;7.758;2023-12-14T11:03:33;9.13;;;2.85;;
79570;SDS011;69034;49.444;7.758;2023-12-14T11:11:55;10.13;;;3.17;;
79570;SDS011;69034;49.444;7.758;2023-12-14T11:15:58;5.38;;;2.67;;
79570;SDS011;69034;49.444;7.758;2023-12-14T11:20:23;6.88;;;3.45;;
79570;SDS011;69034;49.444;7.758;2023-12-14T11:24:24;7.68;;;2.80;;
79570;SDS011;69034;49.444;7.758;2023-12-14T11:28:26;5.60;;;2.47;;
79570;SDS011;69034;49.444;7.758;2023-12-14T11:32:27;7.50;;;2.65;;
79570;SDS011;69034;49.444;7.758;2023-12-14T11:36:28;7.35;;;2.67;;
79570;SDS011;69034;49.444;7.758;2023-12-14T11:40:31;6.30;;;2.70;;
79570;SDS011;69034;49.444;7.758;2023-12-14T11:44:31;5.00;;;2.38;;
79570;SDS011;69034;49.444;7.758;2023-12-14T11:48:32;4.38;;;2.08;;
79570;SDS011;69034;49.444;7.758;2023-12-14T11:52:33;5.03;;;2.35;;
79570;SDS011;69034;49.444;7.758;2023-12-14T11:56:35;4.88;;;2.25;;
79570;SDS011;69034;49.444;7.758;2023-12-14T12:00:37;4.22;;;1.80;;
79570;SDS011;69034;49.444;7.758;2023-12-14T12:04:49;4.30;;;2.30;;
79570;SDS011;69034;49.444;7.758;2023-12-14T12:08:51;3.95;;;1.70;;
79570;SDS011;69034;49.444;7.758;2023-12-14T12:12:58;4.78;;;1.80;;
79570;SDS011;69034;49.444;7.758;2023-12-14T12:17:03;4.80;;;2.30;;
79570;SDS011;69034;49.444;7.758;2023-12-14T12:21:05;4.65;;;2.00;;
79570;SDS011;69034;49.444;7.758;2023-12-14T12:25:08;4.75;;;1.90;;
79570;SDS011;69034;49.444;7.758;2023-12-14T12:29:09;4.22;;;1.45;;
79570;SDS011;69034;49.444;7.758;2023-12-14T12:33:09;4.63;;;1.65;;
79570;SDS011;69034;49.444;7.758;2023-12-14T12:37:10;3.35;;;1.52;;
79570;SDS011;69034;49.444;7.758;2023-12-14T12:41:10;5.07;;;1.45;;
79570;SDS011;69034;49.444;7.758;2023-12-14T12:45:11;4.25;;;1.50;;
79570;SDS011;69034;49.444;7.758;2023-12-14T12:49:12;3.00;;;1.13;;
79570;SDS011;69034;49.444;7.758;2023-12-14T12:53:12;6.80;;;1.38;;
79570;SDS011;69034;49.444;7.758;2023-12-14T12:57:13;6.10;;;1.80;;
79570;SDS011;69034;49.444;7.758;2023-12-14T13:01:14;3.10;;;1.27;;
79570;SDS011;69034;49.444;7.758;2023-12-14T13:05:17;4.32;;;1.48;;
79570;SDS011;69034;49.444;7.758;2023-12-14T13:09:22;3.53;;;1.77;;
79570;SDS011;69034;49.444;7.758;2023-12-14T13:13:23;3.60;;;1.50;;
79570;SDS011;69034;49.444;7.758;2023-12-14T13:17:24;4.55;;;1.60;;
79570;SDS011;69034;49.444;7.758;2023-12-14T13:21:24;3.08;;;1.35;;
79570;SDS011;69034;49.444;7.758;2023-12-14T13:25:25;3.80;;;1.35;;
79570;SDS011;69034;49.444;7.758;2023-12-14T13:29:27;3.08;;;1.17;;
79570;SDS011;69034;49.444;7.758;2023-12-14T13:33:28;2.28;;;0.88;;
79570;SDS011;69034;49.444;7.758;2023-12-14T13:37:28;3.17;;;1.08;;
79570;SDS011;69034;49.444;7.758;2023-12-14T13:41:29;4.38;;;1.58;;
79570;SDS011;69034;49.444;7.758;2023-12-14T13:45:33;2.80;;;1.33;;
79570;SDS011;69034;49.444;7.758;2023-12-14T13:49:34;7.30;;;1.45;;
79570;SDS011;69034;49.444;7.758;2023-12-14T13:53:35;4.32;;;1.20;;
79570;SDS011;69034;49.444;7.758;2023-12-14T13:57:35;2.72;;;1.10;;
79570;SDS011;69034;49.444;7.758;2023-12-14T14:01:36;3.60;;;1.33;;
79570;SDS011;69034;49.444;7.758;2023-12-14T14:05:37;2.55;;;0.95;;
79570;SDS011;69034;49.444;7.758;2023-12-14T14:09:38;2.05;;;0.80;;
79570;SDS011;69034;49.444;7.758;2023-12-14T14:13:39;1.25;;;0.55;;
79570;SDS011;69034;49.444;7.758;2023-12-14T14:17:40;1.77;;;0.73;;
79570;SDS011;69034;49.444;7.758;2023-12-14T14:21:43;2.90;;;1.00;;
79570;SDS011;69034;49.444;7.758;2023-12-14T14:25:44;2.65;;;0.85;;
79570;SDS011;69034;49.444;7.758;2023-12-14T14:34:29;3.50;;;1.20;;
79570;SDS011;69034;49.444;7.758;2023-12-14T14:39:01;2.15;;;0.90;;
79570;SDS011;69034;49.444;7.758;2023-12-14T14:43:06;3.28;;;0.82;;
79570;SDS011;69034;49.444;7.758;2023-12-14T14:47:13;1.60;;;0.63;;
79570;SDS011;69034;49.444;7.758;2023-12-14T14:56:21;2.40;;;1.05;;
79570;SDS011;69034;49.444;7.758;2023-12-14T15:00:32;2.00;;;0.73;;
79570;SDS011;69034;49.444;7.758;2023-12-14T15:05:16;4.18;;;0.80;;
79570;SDS011;69034;49.444;7.758;2023-12-14T15:10:02;0.68;;;0.38;;
79570;SDS011;69034;49.444;7.758;2023-12-14T15:19:46;2.47;;;1.10;;
79570;SDS011;69034;49.444;7.758;2023-12-14T15:23:52;2.55;;;0.60;;
79570;SDS011;69034;49.444;7.758;2023-12-14T15:27:54;2.75;;;1.10;;
79570;SDS011;69034;49.444;7.758;2023-12-14T15:31:54;1.95;;;0.77;;
79570;SDS011;69034;49.444;7.758;2023-12-14T15:35:55;5.10;;;0.95;;
79570;SDS011;69034;49.444;7.758;2023-12-14T15:39:57;1.73;;;0.63;;
79570;SDS011;69034;49.444;7.758;2023-12-14T15:43:57;1.90;;;0.52;;
79570;SDS011;69034;49.444;7.758;2023-12-14T15:47:59;3.72;;;1.65;;
79570;SDS011;69034;49.444;7.758;2023-12-14T15:52:00;3.72;;;1.20;;
79570;SDS011;69034;49.444;7.758;2023-12-14T15:56:01;1.52;;;0.60;;
79570;SDS011;69034;49.444;7.758;2023-12-14T16:00:02;1.95;;;0.70;;
79570;SDS011;69034;49.444;7.758;2023-12-14T16:04:03;2.33;;;0.93;;
79570;SDS011;69034;49.444;7.758;2023-12-14T16:08:04;2.95;;;1.08;;
79570;SDS011;69034;49.444;7.758;2023-12-14T16:12:05;1.55;;;0.63;;
79570;SDS011;69034;49.444;7.758;2023-12-14T16:16:06;2.95;;;0.90;;
79570;SDS011;69034;49.444;7.758;2023-12-14T16:20:08;3.63;;;1.27;;
79570;SDS011;69034;49.444;7.758;2023-12-14T16:24:10;4.65;;;1.23;;
79570;SDS011;69034;49.444;7.758;2023-12-14T16:28:11;1.88;;;0.90;;
79570;SDS011;69034;49.444;7.758;2023-12-14T16:32:14;1.92;;;0.82;;
79570;SDS011;69034;49.444;7.758;2023-12-14T16:36:15;1.90;;;0.75;;
79570;SDS011;69034;49.444;7.758;2023-12-14T16:40:16;1.25;;;0.50;;
79570;SDS011;69034;49.444;7.758;2023-12-14T16:44:17;1.60;;;0.52;;
79570;SDS011;69034;49.444;7.758;2023-12-14T16:48:18;1.30;;;0.50;;
79570;SDS011;69034;49.444;7.758;2023-12-14T16:52:21;4.45;;;1.63;;
79570;SDS011;69034;49.444;7.758;2023-12-14T16:56:27;2.30;;;0.80;;
79570;SDS011;69034;49.444;7.758;2023-12-14T17:00:29;2.20;;;1.10;;
79570;SDS011;69034;49.444;7.758;2023-12-14T17:04:30;1.70;;;0.70;;
79570;SDS011;69034;49.444;7.758;2023-12-14T17:08:31;2.42;;;1.00;;
79570;SDS011;69034;49.444;7.758;2023-12-14T17:12:31;3.58;;;1.38;;
79570;SDS011;69034;49.444;7.758;2023-12-14T17:16:32;1.95;;;0.90;;
79570;SDS011;69034;49.444;7.758;2023-12-14T17:20:32;3.95;;;1.60;;
79570;SDS011;69034;49.444;7.758;2023-12-14T17:24:34;4.90;;;1.80;;
79570;SDS011;69034;49.444;7.758;2023-12-14T17:28:34;2.95;;;1.25;;
79570;SDS011;69034;49.444;7.758;2023-12-14T17:32:36;4.28;;;1.95;;
79570;SDS011;69034;49.444;7.758;2023-12-14T17:36:41;3.53;;;1.50;;
79570;SDS011;69034;49.444;7.758;2023-12-14T17:40:42;2.63;;;1.08;;
79570;SDS011;69034;49.444;7.758;2023-12-14T17:44:42;1.90;;;0.63;;
79570;SDS011;69034;49.444;7.758;2023-12-14T17:48:43;3.30;;;1.20;;
79570;SDS011;69034;49.444;7.758;2023-12-14T17:52:43;3.25;;;1.10;;
79570;SDS011;69034;49.444;7.758;2023-12-14T17:56:44;2.40;;;0.90;;
79570;SDS011;69034;49.444;7.758;2023-12-14T18:00:45;2.40;;;0.90;;
79570;SDS011;69034;49.444;7.758;2023-12-14T18:04:47;3.03;;;1.35;;
79570;SDS011;69034;49.444;7.758;2023-12-14T18:08:47;2.53;;;0.98;;
79570;SDS011;69034;49.444;7.758;2023-12-14T18:12:50;3.75;;;1.40;;
79570;SDS011;69034;49.444;7.758;2023-12-14T18:16:51;3.17;;;1.13;;
79570;SDS011;69034;49.444;7.758;2023-12-14T18:20:53;2.22;;;1.10;;
79570;SDS011;69034;49.444;7.758;2023-12-14T18:24:54;2.00;;;0.80;;
79570;SDS011;69034;49.444;7.758;2023-12-14T18:28:54;2.72;;;0.85;;
79570;SDS011;69034;49.444;7.758;2023-12-14T18:32:55;5.97;;;1.80;;
79570;SDS011;69034;49.444;7.758;2023-12-14T18:36:56;2.05;;;0.73;;
79570;SDS011;69034;49.444;7.758;2023-12-14T18:40:57;3.00;;;1.42;;
79570;SDS011;69034;49.444;7.758;2023-12-14T18:44:57;2.78;;;1.25;;
79570;SDS011;69034;49.444;7.758;2023-12-14T18:48:58;6.63;;;1.40;;
79570;SDS011;69034;49.444;7.758;2023-12-14T18:53:06;1.75;;;0.85;;
79570;SDS011;69034;49.444;7.758;2023-12-14T18:57:08;4.40;;;2.00;;
79570;SDS011;69034;49.444;7.758;2023-12-14T19:01:11;4.22;;;1.70;;
79570;SDS011;69034;49.444;7.758;2023-12-14T19:05:12;6.10;;;1.48;;
79570;SDS011;69034;49.444;7.758;2023-12-14T19:09:13;4.45;;;1.27;;
79570;SDS011;69034;49.444;7.758;2023-12-14T19:13:14;2.80;;;1.40;;
79570;SDS011;69034;49.444;7.758;2023-12-14T19:17:16;4.55;;;1.52;;
79570;SDS011;69034;49.444;7.758;2023-12-14T19:21:22;3.58;;;1.77;;
79570;SDS011;69034;49.444;7.758;2023-12-14T19:25:23;4.30;;;2.00;;
79570;SDS011;69034;49.444;7.758;2023-12-14T19:29:24;3.80;;;1.42;;
79570;SDS011;69034;49.444;7.758;2023-12-14T19:33:25;4.20;;;1.70;;
79570;SDS011;69034;49.444;7.758;2023-12-14T19:37:26;3.25;;;1.45;;
79570;SDS011;69034;49.444;7.758;2023-12-14T19:41:27;2.13;;;0.80;;
79570;SDS011;69034;49.444;7.758;2023-12-14T19:45:28;3.42;;;1.40;;
79570;SDS011;69034;49.444;7.758;2023-12-14T19:49:29;3.30;;;1.25;;
79570;SDS011;69034;49.444;7.758;2023-12-14T19:53:29;4.00;;;1.80;;
79570;SDS011;69034;49.444;7.758;2023-12-14T19:57:30;5.40;;;1.98;;
79570;SDS011;69034;49.444;7.758;2023-12-14T20:01:31;3.80;;;1.80;;
79570;SDS011;69034;49.444;7.758;2023-12-14T20:05:33;5.63;;;1.77;;
79570;SDS011;69034;49.444;7.758;2023-12-14T20:09:35;10.55;;;2.28;;
79570;SDS011;69034;49.444;7.758;2023-12-14T20:13:36;3.78;;;1.42;;
79570;SDS011;69034;49.444;7.758;2023-12-14T20:17:37;3.40;;;1.75;;
79570;SDS011;69034;49.444;7.758;2023-12-14T20:21:38;3.72;;;1.55;;
79570;SDS011;69034;49.444;7.758;2023-12-14T20:25:38;4.22;;;2.15;;
79570;SDS011;69034;49.444;7.758;2023-12-14T20:29:39;4.35;;;1.85;;
79570;SDS011;69034;49.444;7.758;2023-12-14T20:33:40;5.95;;;1.67;;
79570;SDS011;69034;49.444;7.758;2023-12-14T20:37:41;3.78;;;1.77;;
79570;SDS011;69034;49.444;7.758;2023-12-14T20:41:41;5.82;;;2.55;;
79570;SDS011;69034;49.444;7.758;2023-12-14T20:45:42;6.03;;;2.05;;
79570;SDS011;69034;49.444;7.758;2023-12-14T20:49:43;4.00;;;1.55;;
79570;SDS011;69034;49.444;7.758;2023-12-14T20:53:44;3.75;;;1.42;;
79570;SDS011;69034;49.444;7.758;2023-12-14T20:57:44;5.10;;;2.05;;
79570;SDS011;69034;49.444;7.758;2023-12-14T21:01:48;3.85;;;1.77;;
79570;SDS011;69034;49.444;7.758;2023-12-14T21:05:51;4.18;;;1.65;;
79570;SDS011;69034;49.444;7.758;2023-12-14T21:09:52;3.17;;;1.42;;
79570;SDS011;69034;49.444;7.758;2023-12-14T21:13:57;3.45;;;1.48;;
79570;SDS011;69034;49.444;7.758;2023-12-14T21:17:57;2.80;;;1.50;;
79570;SDS011;69034;49.444;7.758;2023-12-14T21:21:58;3.90;;;1.55;;
79570;SDS011;69034;49.444;7.758;2023-12-14T21:25:59;5.15;;;1.77;;
79570;SDS011;69034;49.444;7.758;2023-12-14T21:30:08;3.60;;;1.52;;
79570;SDS011;69034;49.444;7.758;2023-12-14T21:34:10;5.53;;;2.58;;
79570;SDS011;69034;49.444;7.758;2023-12-14T21:38:11;2.58;;;1.10;;
79570;SDS011;69034;49.444;7.758;2023-12-14T21:42:12;2.17;;;0.98;;
79570;SDS011;69034;49.444;7.758;2023-12-14T21:46:12;2.90;;;1.05;;
79570;SDS011;69034;49.444;7.758;2023-12-14T21:50:13;4.68;;;1.80;;
79570;SDS011;69034;49.444;7.758;2023-12-14T21:54:14;8.93;;;2.17;;
79570;SDS011;69034;49.444;7.758;2023-12-14T21:58:15;5.32;;;1.50;;
79570;SDS011;69034;49.444;7.758;2023-12-14T22:02:15;3.72;;;1.83;;
79570;SDS011;69034;49.444;7.758;2023-12-14T22:06:16;3.05;;;1.10;;
79570;SDS011;69034;49.444;7.758;2023-12-14T22:10:19;4.22;;;1.77;;
79570;SDS011;69034;49.444;7.758;2023-12-14T22:14:20;5.63;;;1.85;;
79570;SDS011;69034;49.444;7.758;2023-12-14T22:18:21;3.22;;;1.15;;
79570;SDS011;69034;49.444;7.758;2023-12-14T22:22:26;3.15;;;1.50;;
79570;SDS011;69034;49.444;7.758;2023-12-14T22:26:28;4.18;;;2.13;;
79570;SDS011;69034;49.444;7.758;2023-12-14T22:30:29;3.90;;;1.38;;
79570;SDS011;69034;49.444;7.758;2023-12-14T22:34:30;3.80;;;1.35;;
79570;SDS011;69034;49.444;7.758;2023-12-14T22:38:30;4.15;;;1.40;;
79570;SDS011;69034;49.444;7.758;2023-12-14T22:42:31;2.67;;;1.13;;
79570;SDS011;69034;49.444;7.758;2023-12-14T22:46:32;5.45;;;1.95;;
79570;SDS011;69034;49.444;7.758;2023-12-14T22:50:32;3.47;;;1.70;;
79570;SDS011;69034;49.444;7.758;2023-12-14T22:54:33;4.25;;;1.60;;
79570;SDS011;69034;49.444;7.758;2023-12-14T22:58:38;4.70;;;2.28;;
79570;SDS011;69034;49.444;7.758;2023-12-14T23:02:40;4.07;;;2.00;;
79570;SDS011;69034;49.444;7.758;2023-12-14T23:06:41;3.20;;;1.30;;
79570;SDS011;69034;49.444;7.758;2023-12-14T23:10:43;4.88;;;2.25;;
79570;SDS011;69034;49.444;7.758;2023-12-14T23:14:44;4.05;;;1.63;;
79570;SDS011;69034;49.444;7.758;2023-12-14T23:18:46;10.60;;;2.13;;
79570;SDS011;69034;49.444;7.758;2023-12-14T23:22:47;3.80;;;1.25;;
79570;SDS011;69034;49.444;7.758;2023-12-14T23:26:47;3.35;;;1.42;;
79570;SDS011;69034;49.444;7.758;2023-12-14T23:30:48;3.33;;;1.60;;
79570;SDS011;69034;49.444;7.758;2023-12-14T23:34:50;2.80;;;1.20;;
79570;SDS011;69034;49.444;7.758;2023-12-14T23:38:50;4.80;;;2.58;;
79570;SDS011;69034;49.444;7.758;2023-12-14T23:42:51;3.63;;;1.30;;
79570;SDS011;69034;49.444;7.758;2023-12-14T23:46:52;4.38;;;1.90;;
79570;SDS011;69034;49.444;7.758;2023-12-14T23:50:53;2.95;;;1.45;;
79570;SDS011;69034;49.444;7.758;2023-12-14T23:54:53;3.60;;;1.30;;
79570;SDS011;69034;49.444;7.758;2023-12-14T23:58:54;6.57;;;1.83;;
